createdAt,value
2023-04-26T00:00:46.660Z,36.8010
2023-04-26T00:01:48.793Z,36.7590
2023-04-26T00:02:49.005Z,36.7440
2023-04-26T00:03:51.334Z,36.7840
2023-04-26T00:04:53.338Z,36.7870
2023-04-26T00:05:55.586Z,36.7780
2023-04-26T00:06:57.600Z,36.7840
2023-04-26T00:07:59.821Z,36.8150
2023-04-26T00:09:02.056Z,36.7840
2023-04-26T00:10:04.259Z,36.7910
2023-04-26T00:11:06.493Z,36.8180
2023-04-26T00:12:08.723Z,36.7950
2023-04-26T00:13:10.909Z,36.7960
2023-04-26T00:14:13.073Z,36.7900
2023-04-26T00:15:15.269Z,36.7440
2023-04-26T00:16:17.507Z,36.7440
2023-04-26T00:17:19.679Z,36.7370
2023-04-26T00:18:21.907Z,36.7250
2023-04-26T00:19:22.000Z,36.7260
2023-04-26T00:20:24.257Z,36.7570
2023-04-26T00:21:26.526Z,36.7800
2023-04-26T00:22:28.719Z,36.7390
2023-04-26T00:23:30.950Z,36.7240
2023-04-26T00:24:33.194Z,36.7400
2023-04-26T00:25:35.445Z,36.7510
2023-04-26T00:26:37.720Z,36.7240
2023-04-26T00:27:39.901Z,36.7090
2023-04-26T00:28:40.015Z,36.7070
2023-04-26T00:29:42.282Z,36.7340
2023-04-26T00:30:44.554Z,36.7310
2023-04-26T00:31:46.973Z,36.7130
2023-04-26T00:32:49.095Z,36.6920
2023-04-26T00:33:51.377Z,36.7460
2023-04-26T00:34:53.683Z,36.8120
2023-04-26T00:35:53.801Z,36.8390
2023-04-26T00:36:56.125Z,36.8000
2023-04-26T00:37:58.343Z,36.8230
2023-04-26T00:39:00.626Z,36.8270
2023-04-26T00:40:02.875Z,36.8060
2023-04-26T00:41:05.090Z,36.7690
2023-04-26T00:42:07.392Z,36.7350
2023-04-26T00:43:09.638Z,36.7120
2023-04-26T00:44:09.689Z,36.7460
2023-04-26T00:45:11.888Z,36.7460
2023-04-26T00:46:14.211Z,36.7180
2023-04-26T00:47:16.430Z,36.6850
2023-04-26T00:48:18.583Z,36.7120
2023-04-26T00:49:20.812Z,36.7050
2023-04-26T00:50:23.006Z,36.7450
2023-04-26T00:51:25.228Z,36.7390
2023-04-26T00:52:27.495Z,36.7660
2023-04-26T00:53:29.622Z,36.6990
2023-04-26T00:54:31.835Z,36.7130
2023-04-26T00:55:34.077Z,36.7240
2023-04-26T00:56:36.253Z,36.7470
2023-04-26T00:57:38.481Z,36.7220
2023-04-26T00:58:40.657Z,36.6770
2023-04-26T00:59:40.746Z,36.7420
2023-04-26T01:00:42.991Z,36.7220
2023-04-26T01:01:45.214Z,36.6880
2023-04-26T01:02:47.611Z,36.7300
2023-04-26T01:03:49.862Z,36.7630
2023-04-26T01:04:51.864Z,36.7420
2023-04-26T01:05:54.054Z,36.7540
2023-04-26T01:06:56.218Z,36.7690
2023-04-26T01:07:58.481Z,36.7120
2023-04-26T01:09:43.693Z,36.7660
2023-04-26T01:10:45.868Z,36.7600
2023-04-26T01:11:48.045Z,36.7390
2023-04-26T01:12:50.234Z,36.7100
2023-04-26T01:13:52.420Z,36.7480
2023-04-26T01:14:54.614Z,36.7640
2023-04-26T01:15:54.653Z,36.7600
2023-04-26T01:16:56.881Z,36.7250
2023-04-26T01:17:59.022Z,36.7080
2023-04-26T01:19:01.193Z,36.7350
2023-04-26T01:20:03.371Z,36.7140
2023-04-26T01:21:05.552Z,36.7170
2023-04-26T01:22:07.724Z,36.7350
2023-04-26T01:23:09.937Z,36.7080
2023-04-26T01:24:12.057Z,36.6890
2023-04-26T01:25:14.165Z,36.6950
2023-04-26T01:26:16.272Z,36.6610
2023-04-26T01:27:18.386Z,36.6840
2023-04-26T01:28:20.526Z,36.6880
2023-04-26T01:29:22.773Z,36.6670
2023-04-26T01:30:24.959Z,36.6720
2023-04-26T01:31:27.233Z,36.6760
2023-04-26T01:32:29.383Z,36.6520
2023-04-26T01:33:31.518Z,36.6440
2023-04-26T01:34:33.682Z,36.5910
2023-04-26T01:35:35.829Z,36.6140
2023-04-26T01:36:38.060Z,36.6520
2023-04-26T01:37:40.229Z,36.6190
2023-04-26T01:38:40.319Z,36.6350
2023-04-26T01:39:42.543Z,36.6080
2023-04-26T01:40:44.756Z,36.6080
2023-04-26T01:41:46.975Z,36.6140
2023-04-26T01:42:49.195Z,36.5950
2023-04-26T01:43:51.378Z,36.6300
2023-04-26T01:44:53.822Z,36.6470
2023-04-26T01:45:55.826Z,36.6300
2023-04-26T01:46:58.028Z,36.5950
2023-04-26T01:48:00.271Z,36.6060
2023-04-26T01:49:02.539Z,36.5950
2023-04-26T01:50:04.708Z,36.6170
2023-04-26T01:51:06.879Z,36.6570
2023-04-26T01:52:09.051Z,36.6070
2023-04-26T01:53:09.088Z,36.6010
2023-04-26T01:54:11.329Z,36.6340
2023-04-26T01:55:13.452Z,36.6510
2023-04-26T01:56:15.644Z,36.6010
2023-04-26T01:57:17.859Z,36.5920
2023-04-26T01:58:20.075Z,36.5980
2023-04-26T01:59:22.273Z,36.6180
2023-04-26T02:00:24.488Z,36.5980
2023-04-26T02:01:26.666Z,36.6560
2023-04-26T02:02:28.890Z,36.5920
2023-04-26T02:03:31.082Z,36.6220
2023-04-26T02:04:33.276Z,36.5980
2023-04-26T02:05:35.480Z,36.6310
2023-04-26T02:06:37.674Z,36.6550
2023-04-26T02:07:37.763Z,36.6720
2023-04-26T02:08:40.008Z,36.6400
2023-04-26T02:09:42.269Z,36.6400
2023-04-26T02:10:44.555Z,36.6720
2023-04-26T02:11:46.829Z,36.6400
2023-04-26T02:12:49.137Z,36.6550
2023-04-26T02:13:51.432Z,36.6280
2023-04-26T02:14:53.848Z,36.6400
2023-04-26T02:15:56.057Z,36.6220
2023-04-26T02:16:56.190Z,36.6680
2023-04-26T02:17:58.556Z,36.6790
2023-04-26T02:19:00.765Z,36.6740
2023-04-26T02:20:02.959Z,36.6610
2023-04-26T02:21:05.215Z,36.6920
2023-04-26T02:22:07.416Z,36.6860
2023-04-26T02:23:09.659Z,36.6680
2023-04-26T02:24:11.900Z,36.6960
2023-04-26T02:25:11.999Z,36.7130
2023-04-26T02:26:14.141Z,36.7480
2023-04-26T02:27:16.365Z,36.7400
2023-04-26T02:28:18.578Z,36.7010
2023-04-26T02:29:29.464Z,36.6780
2023-04-26T02:30:23.025Z,36.7010
2023-04-26T02:32:57.761Z,36.7670
2023-04-26T02:33:59.886Z,36.7130
2023-04-26T02:35:02.198Z,36.6610
2023-04-26T02:36:04.396Z,36.6370
2023-04-26T02:37:06.632Z,36.6430
2023-04-26T02:38:06.708Z,36.6370
2023-04-26T02:39:08.934Z,36.6650
2023-04-26T02:40:11.159Z,36.7100
2023-04-26T02:41:13.434Z,36.7000
2023-04-26T02:42:15.660Z,36.7030
2023-04-26T02:43:17.918Z,36.6890
2023-04-26T02:44:20.159Z,36.6690
2023-04-26T02:45:22.406Z,36.6520
2023-04-26T02:46:24.676Z,36.6140
2023-04-26T02:47:26.984Z,36.6140
2023-04-26T02:48:27.043Z,36.5990
2023-04-26T02:49:29.270Z,36.6160
2023-04-26T02:50:31.487Z,36.6000
2023-04-26T02:51:33.738Z,36.6570
2023-04-26T02:52:36.009Z,36.6970
2023-04-26T02:53:38.231Z,36.6470
2023-04-26T02:54:40.472Z,36.6190
2023-04-26T02:55:42.767Z,36.5940
2023-04-26T02:56:45.089Z,36.6270
2023-04-26T02:57:45.256Z,36.6070
2023-04-26T02:58:47.537Z,36.5830
2023-04-26T02:59:49.831Z,36.6040
2023-04-26T03:00:52.219Z,36.6150
2023-04-26T03:01:54.663Z,36.6510
2023-04-26T03:02:57.049Z,36.6100
2023-04-26T03:03:57.017Z,36.6040
2023-04-26T03:04:59.277Z,36.6310
2023-04-26T03:06:01.612Z,36.6310
2023-04-26T03:07:03.916Z,36.6310
2023-04-26T03:08:06.242Z,36.6150
2023-04-26T03:09:06.393Z,36.6250
2023-04-26T03:10:08.692Z,36.6540
2023-04-26T03:11:10.986Z,36.6590
2023-04-26T03:12:13.300Z,36.6630
2023-04-26T03:13:15.573Z,36.6570
2023-04-26T03:14:17.824Z,36.6910
2023-04-26T03:15:20.133Z,36.7430
2023-04-26T03:16:20.273Z,36.7540
2023-04-26T03:17:22.587Z,36.7660
2023-04-26T03:18:24.923Z,36.8100
2023-04-26T03:19:27.228Z,36.8100
2023-04-26T03:20:29.578Z,36.8000
2023-04-26T03:21:31.893Z,36.8130
2023-04-26T03:22:32.071Z,36.8570
2023-04-26T03:23:34.377Z,36.8470
2023-04-26T03:24:36.646Z,36.8800
2023-04-26T03:25:38.963Z,36.8970
2023-04-26T03:26:41.278Z,36.9220
2023-04-26T03:27:43.724Z,36.9220
2023-04-26T03:28:43.814Z,36.9290
2023-04-26T03:29:46.112Z,36.9830
2023-04-26T03:30:48.451Z,37.0120
2023-04-26T03:31:50.820Z,37.0800
2023-04-26T03:32:53.146Z,37.1310
2023-04-26T03:33:55.473Z,37.1290
2023-04-26T03:34:55.613Z,37.1400
2023-04-26T03:35:57.948Z,37.1340
2023-04-26T03:37:00.279Z,37.1450
2023-04-26T03:38:02.521Z,37.1040
2023-04-26T03:39:04.776Z,37.1320
2023-04-26T03:40:04.902Z,37.1120
2023-04-26T03:41:07.181Z,37.1620
2023-04-26T03:42:09.459Z,37.1740
2023-04-26T03:43:11.790Z,37.1910
2023-04-26T03:44:14.044Z,37.1740
2023-04-26T03:45:16.322Z,37.1800
2023-04-26T03:46:18.639Z,37.2320
2023-04-26T03:47:20.854Z,37.2700
2023-04-26T03:48:20.947Z,37.3030
2023-04-26T03:49:23.226Z,37.2760
2023-04-26T03:50:25.464Z,37.2660
2023-04-26T03:51:27.730Z,37.2460
2023-04-26T03:52:29.967Z,37.2860
2023-04-26T03:53:32.227Z,37.2730
2023-04-26T03:54:34.609Z,37.2440
2023-04-26T03:55:36.724Z,37.2330
2023-04-26T03:56:38.922Z,37.2810
2023-04-26T03:57:41.124Z,37.3090
2023-04-26T03:58:43.423Z,37.3090
2023-04-26T04:00:01.877Z,37.3450
2023-04-26T04:01:02.951Z,37.3720
2023-04-26T04:02:05.215Z,37.3600
2023-04-26T04:03:07.800Z,37.3770
2023-04-26T04:04:09.772Z,37.3230
2023-04-26T04:05:09.812Z,37.2850
2023-04-26T04:06:11.953Z,37.2680
2023-04-26T04:07:14.184Z,37.2910
2023-04-26T04:08:16.398Z,37.2390
2023-04-26T04:09:18.612Z,37.2620
2023-04-26T04:10:20.960Z,37.2500
2023-04-26T04:11:23.090Z,37.2560
2023-04-26T04:12:25.346Z,37.2620
2023-04-26T04:13:27.609Z,37.3040
2023-04-26T04:14:29.896Z,37.2810
2023-04-26T04:15:30.146Z,37.2560
2023-04-26T04:16:32.313Z,37.2190
2023-04-26T04:17:35.970Z,37.2260
2023-04-26T04:18:36.715Z,37.3110
2023-04-26T04:19:38.890Z,37.3800
2023-04-26T04:20:41.096Z,37.3940
2023-04-26T04:21:43.288Z,37.3940
2023-04-26T04:22:45.446Z,37.4200
2023-04-26T04:23:47.634Z,37.4440
2023-04-26T04:24:49.729Z,37.4380
2023-04-26T04:25:51.906Z,37.4270
2023-04-26T04:26:54.066Z,37.4020
2023-04-26T04:27:56.308Z,37.3730
2023-04-26T04:28:58.568Z,37.3670
2023-04-26T04:30:00.836Z,37.4060
2023-04-26T04:31:03.167Z,37.4390
2023-04-26T04:32:03.189Z,37.4740
2023-04-26T04:33:05.654Z,37.4980
2023-04-26T04:34:07.798Z,37.4500
2023-04-26T04:35:10.031Z,37.4110
2023-04-26T04:36:12.348Z,37.4000
2023-04-26T04:37:14.622Z,37.4080
2023-04-26T04:38:16.925Z,37.4200
2023-04-26T04:39:17.080Z,37.4560
2023-04-26T04:40:19.401Z,37.4510
2023-04-26T04:41:21.720Z,37.4380
2023-04-26T04:42:24.004Z,37.4510
2023-04-26T04:43:26.285Z,37.5210
2023-04-26T04:44:28.591Z,37.5140
2023-04-26T04:45:28.737Z,37.5540
2023-04-26T04:46:31.118Z,37.5440
2023-04-26T04:47:33.303Z,37.4980
2023-04-26T04:48:35.591Z,37.5040
2023-04-26T04:49:37.828Z,37.4730
2023-04-26T04:50:40.122Z,37.4620
2023-04-26T04:51:42.469Z,37.4870
2023-04-26T04:52:42.590Z,37.5270
2023-04-26T04:53:44.837Z,37.5750
2023-04-26T04:54:47.088Z,37.5320
2023-04-26T04:55:49.303Z,37.5380
2023-04-26T04:56:51.521Z,37.5260
2023-04-26T04:57:53.683Z,37.5280
2023-04-26T04:58:55.937Z,37.5170
2023-04-26T05:01:22.083Z,37.6990
2023-04-26T05:02:24.410Z,37.7100
2023-04-26T05:03:26.447Z,37.7380
2023-04-26T05:04:26.527Z,37.7270
2023-04-26T05:05:28.607Z,37.7090
2023-04-26T05:06:30.825Z,37.7330
2023-04-26T05:07:33.103Z,37.7440
2023-04-26T05:08:35.299Z,37.7500
2023-04-26T05:09:37.542Z,37.7620
2023-04-26T05:10:39.787Z,37.7440
2023-04-26T05:11:42.052Z,37.7330
2023-04-26T05:12:44.338Z,37.7730
2023-04-26T05:13:46.589Z,37.7440
2023-04-26T05:14:46.736Z,37.7670
2023-04-26T05:15:49.034Z,37.7700
2023-04-26T05:16:51.468Z,37.7130
2023-04-26T05:17:53.650Z,37.7060
2023-04-26T05:18:55.808Z,37.7060
2023-04-26T05:19:58.005Z,37.7230
2023-04-26T05:21:00.224Z,37.7920
2023-04-26T05:22:02.517Z,37.7730
2023-04-26T05:23:04.810Z,37.7980
2023-04-26T05:24:04.938Z,37.7590
2023-04-26T05:25:07.182Z,37.7400
2023-04-26T05:26:09.463Z,37.7320
2023-04-26T05:27:11.730Z,37.7340
2023-04-26T05:28:14.044Z,37.7110
2023-04-26T05:29:16.288Z,37.1440
2023-04-26T05:30:18.579Z,36.0870
2023-04-26T05:31:20.885Z,35.6610
2023-04-26T05:32:21.051Z,35.6200
2023-04-26T05:33:23.296Z,35.5790
2023-04-26T05:34:23.363Z,35.5280
2023-04-26T05:35:25.656Z,35.5960
2023-04-26T05:36:29.627Z,35.6510
2023-04-26T05:37:30.173Z,35.6160
2023-04-26T05:38:32.476Z,35.6060
2023-04-26T05:39:32.555Z,35.5460
2023-04-26T05:40:34.821Z,35.5190
2023-04-26T05:41:37.111Z,35.5400
2023-04-26T05:42:39.355Z,35.5530
2023-04-26T05:43:41.667Z,35.6950
2023-04-26T05:44:43.888Z,35.7960
2023-04-26T05:45:46.191Z,35.7500
2023-04-26T05:46:48.426Z,36.5730
2023-04-26T05:47:50.728Z,37.0750
2023-04-26T05:48:50.780Z,36.9930
2023-04-26T05:49:53.049Z,36.9930
2023-04-26T05:50:55.354Z,36.9310
2023-04-26T05:51:57.688Z,36.8160
2023-04-26T05:53:00.009Z,36.7680
2023-04-26T05:54:02.279Z,36.7520
2023-04-26T05:55:04.552Z,36.7750
2023-04-26T05:56:04.708Z,36.7630
2023-04-26T05:57:07.008Z,36.7260
2023-04-26T05:58:09.246Z,36.6860
2023-04-26T05:59:11.532Z,36.6830
2023-04-26T06:00:13.737Z,36.6560
2023-04-26T06:01:15.910Z,36.6290
2023-04-26T06:02:18.238Z,36.6520
2023-04-26T06:03:20.670Z,36.6340
2023-04-26T06:04:23.029Z,36.6300
2023-04-26T06:05:25.024Z,36.6180
2023-04-26T06:06:24.986Z,36.6110
2023-04-26T06:08:40.395Z,36.6970
2023-04-26T06:09:42.551Z,36.6940
2023-04-26T06:10:44.755Z,36.6660
2023-04-26T06:11:47.021Z,36.6730
2023-04-26T06:12:49.252Z,36.7000
2023-04-26T06:13:51.803Z,36.6880
2023-04-26T06:14:55.882Z,36.7380
2023-04-26T06:15:45.265Z,36.7430
2023-04-26T06:16:47.473Z,36.7410
2023-04-26T06:17:49.777Z,36.7250
2023-04-26T06:18:52.019Z,36.7390
2023-04-26T06:19:54.242Z,36.7090
2023-04-26T06:20:56.546Z,36.7060
2023-04-26T06:21:58.778Z,36.7590
2023-04-26T06:23:01.046Z,36.7760
2023-04-26T06:24:03.331Z,36.7760
2023-04-26T06:25:03.452Z,36.7650
2023-04-26T06:26:05.771Z,36.7320
2023-04-26T06:27:08.001Z,36.7260
2023-04-26T06:28:10.263Z,36.7140
2023-04-26T06:29:12.529Z,36.6630
2023-04-26T06:30:14.824Z,36.6690
2023-04-26T06:31:17.348Z,36.6840
2023-04-26T06:32:19.402Z,36.7100
2023-04-26T06:33:19.533Z,36.6530
2023-04-26T06:34:21.854Z,36.7200
2023-04-26T06:35:24.121Z,36.7310
2023-04-26T06:36:26.443Z,36.7160
2023-04-26T06:37:28.697Z,36.7050
2023-04-26T06:38:30.972Z,36.6820
2023-04-26T06:39:33.251Z,36.6530
2023-04-26T06:40:33.394Z,36.6350
2023-04-26T06:41:35.692Z,36.4560
2023-04-26T06:42:37.958Z,35.5910
2023-04-26T06:43:40.244Z,35.1950
2023-04-26T06:44:42.579Z,35.0280
2023-04-26T06:45:44.925Z,35.0460
2023-04-26T06:46:47.398Z,35.2480
2023-04-26T06:47:47.523Z,35.3460
2023-04-26T06:48:49.811Z,35.3610
2023-04-26T06:49:52.187Z,35.4470
2023-04-26T06:50:52.285Z,35.4900
2023-04-26T06:51:54.639Z,35.6100
2023-04-26T06:52:56.934Z,35.7110
2023-04-26T06:53:59.307Z,35.7140
2023-04-26T06:55:01.665Z,35.8850
2023-04-26T06:56:04.040Z,35.9590
2023-04-26T06:57:04.252Z,35.8480
2023-04-26T06:58:06.543Z,36.1880
2023-04-26T06:59:08.854Z,36.4430
2023-04-26T07:00:11.181Z,36.4460
2023-04-26T07:01:13.532Z,36.3790
2023-04-26T07:02:16.220Z,36.3570
2023-04-26T07:03:16.207Z,36.3180
2023-04-26T07:04:18.576Z,36.2800
2023-04-26T07:05:20.805Z,36.2470
2023-04-26T07:06:22.948Z,36.2260
2023-04-26T07:07:25.262Z,36.2080
2023-04-26T07:08:27.533Z,36.1920
2023-04-26T07:09:27.618Z,36.1540
2023-04-26T07:10:29.867Z,36.1120
2023-04-26T07:11:32.311Z,36.1380
2023-04-26T07:12:34.506Z,36.1280
2023-04-26T07:13:36.752Z,36.1110
2023-04-26T07:14:39.597Z,36.1220
2023-04-26T07:15:41.408Z,36.0900
2023-04-26T07:16:41.517Z,36.1070
2023-04-26T07:17:43.733Z,36.0790
2023-04-26T07:18:45.962Z,36.0890
2023-04-26T07:19:48.211Z,36.0730
2023-04-26T07:20:50.530Z,36.0340
2023-04-26T07:21:53.056Z,36.0220
2023-04-26T07:22:55.206Z,36.0090
2023-04-26T07:23:55.561Z,35.9970
2023-04-26T07:24:57.586Z,35.9680
2023-04-26T07:25:59.857Z,35.9580
2023-04-26T07:27:02.173Z,35.9530
2023-04-26T07:28:04.476Z,35.9330
2023-04-26T07:29:06.698Z,35.9060
2023-04-26T07:30:09.141Z,35.8930
2023-04-26T07:31:10.605Z,35.9040
2023-04-26T07:32:11.479Z,35.9310
2023-04-26T07:33:13.749Z,35.9340
2023-04-26T07:34:15.901Z,35.9100
2023-04-26T07:35:18.157Z,35.8920
2023-04-26T07:36:22.362Z,35.8860
2023-04-26T07:37:22.768Z,35.8920
2023-04-26T07:38:25.092Z,35.9090
2023-04-26T07:39:25.192Z,35.8760
2023-04-26T07:40:27.448Z,35.8880
2023-04-26T07:41:29.729Z,35.8700
2023-04-26T07:42:31.995Z,35.8990
2023-04-26T07:43:34.317Z,35.9370
2023-04-26T07:44:36.582Z,35.9350
2023-04-26T07:45:38.885Z,35.9280
2023-04-26T07:46:41.085Z,35.9460
2023-04-26T07:47:41.178Z,35.9250
2023-04-26T07:48:43.424Z,35.9250
2023-04-26T07:49:47.494Z,35.9250
2023-04-26T07:50:47.903Z,35.8910
2023-04-26T07:51:50.185Z,35.8600
2023-04-26T07:52:52.349Z,35.8710
2023-04-26T07:53:54.837Z,35.8840
2023-04-26T07:54:56.835Z,35.8840
2023-04-26T07:55:59.120Z,35.9070
2023-04-26T07:56:59.232Z,35.8780
2023-04-26T07:58:01.461Z,35.8750
2023-04-26T07:59:03.756Z,35.8750
2023-04-26T08:00:06.009Z,35.8920
2023-04-26T08:01:08.244Z,35.8640
2023-04-26T08:02:10.532Z,35.8530
2023-04-26T08:03:13.001Z,35.8260
2023-04-26T08:04:15.197Z,35.8200
2023-04-26T08:05:17.530Z,35.8200
2023-04-26T08:06:17.516Z,35.8270
2023-04-26T08:07:19.840Z,35.8050
2023-04-26T08:08:22.070Z,35.8120
2023-04-26T08:09:24.374Z,35.8060
2023-04-26T08:10:26.658Z,35.7700
2023-04-26T08:11:29.013Z,35.7770
2023-04-26T08:12:29.152Z,35.7490
2023-04-26T08:13:31.447Z,35.7760
2023-04-26T08:14:33.775Z,35.7540
2023-04-26T08:15:36.089Z,35.7410
2023-04-26T08:16:38.460Z,35.7140
2023-04-26T08:17:40.732Z,35.7290
2023-04-26T08:18:45.330Z,35.7290
2023-04-26T08:19:44.654Z,35.2780
2023-04-26T08:20:45.452Z,34.9130
2023-04-26T08:21:47.687Z,34.5320
2023-04-26T08:22:50.020Z,34.2780
2023-04-26T08:23:52.440Z,34.3960
2023-04-26T08:24:54.482Z,33.9940
2023-04-26T08:25:56.750Z,34.3600
2023-04-26T08:26:56.901Z,34.6130
2023-04-26T08:27:59.180Z,34.9900
2023-04-26T08:29:01.500Z,35.0540
2023-04-26T08:30:03.844Z,35.2270
2023-04-26T08:31:06.165Z,35.1830
2023-04-26T08:32:06.239Z,35.1300
2023-04-26T08:33:08.532Z,35.1450
2023-04-26T08:34:10.778Z,35.1990
2023-04-26T08:35:13.074Z,35.3640
2023-04-26T08:36:15.272Z,35.4500
2023-04-26T08:37:17.509Z,35.4850
2023-04-26T08:38:19.895Z,35.4630
2023-04-26T08:39:22.031Z,35.4590
2023-04-26T08:40:24.348Z,35.3860
2023-04-26T08:41:24.420Z,35.3680
2023-04-26T08:42:26.671Z,35.2760
2023-04-26T08:43:28.960Z,35.2640
2023-04-26T08:44:31.247Z,35.2580
2023-04-26T08:45:33.593Z,35.1780
2023-04-26T08:46:35.974Z,35.1620
2023-04-26T08:47:38.270Z,35.1670
2023-04-26T08:50:04.417Z,35.1510
2023-04-26T08:51:06.676Z,35.1930
2023-04-26T08:52:08.943Z,35.1670
2023-04-26T08:53:11.237Z,35.1450
2023-04-26T08:54:13.548Z,35.0970
2023-04-26T08:55:15.768Z,35.0470
2023-04-26T08:56:15.894Z,35.0930
2023-04-26T08:57:18.122Z,35.1110
2023-04-26T08:58:20.370Z,35.0860
2023-04-26T08:59:22.658Z,35.1020
2023-04-26T09:00:24.952Z,35.0980
2023-04-26T09:01:27.378Z,35.0950
2023-04-26T09:02:29.744Z,35.0980
2023-04-26T09:03:29.789Z,35.0650
2023-04-26T09:04:32.213Z,35.0270
2023-04-26T09:05:34.282Z,35.0360
2023-04-26T09:06:36.598Z,35.0370
2023-04-26T09:07:38.786Z,35.0160
2023-04-26T09:08:41.078Z,35.0150
2023-04-26T09:09:43.335Z,35.0210
2023-04-26T09:10:45.526Z,35.0150
2023-04-26T09:11:47.766Z,35.0040
2023-04-26T09:12:49.952Z,35.0380
2023-04-26T09:13:50.294Z,35.0300
2023-04-26T09:14:52.248Z,35.0380
2023-04-26T09:15:54.504Z,35.0170
2023-04-26T09:16:56.733Z,35.0300
2023-04-26T09:17:58.866Z,35.0510
2023-04-26T09:19:00.971Z,35.0690
2023-04-26T09:20:04.114Z,35.0930
2023-04-26T09:21:05.247Z,35.0910
2023-04-26T09:22:07.459Z,35.1220
2023-04-26T09:23:09.529Z,35.0780
2023-04-26T09:24:11.682Z,35.0700
2023-04-26T09:25:13.854Z,35.0310
2023-04-26T09:26:15.971Z,35.0590
2023-04-26T09:27:18.104Z,35.0200
2023-04-26T09:28:20.250Z,35.0200
2023-04-26T09:29:22.394Z,35.0130
2023-04-26T09:30:24.534Z,34.9270
2023-04-26T09:31:26.732Z,34.9430
2023-04-26T09:32:28.973Z,34.9930
2023-04-26T09:33:31.141Z,35.0000
2023-04-26T09:34:33.338Z,34.9490
2023-04-26T09:35:35.592Z,34.8760
2023-04-26T09:36:37.816Z,34.8650
2023-04-26T09:37:54.395Z,34.8540
2023-04-26T09:38:40.132Z,34.9490
2023-04-26T09:39:42.335Z,34.8730
2023-04-26T09:40:44.596Z,34.7580
2023-04-26T09:41:46.808Z,34.7740
2023-04-26T09:42:49.027Z,34.6970
2023-04-26T09:43:51.247Z,34.6610
2023-04-26T09:44:53.485Z,34.6500
2023-04-26T09:45:55.752Z,34.5870
2023-04-26T09:46:58.011Z,34.5070
2023-04-26T09:48:00.272Z,34.4590
2023-04-26T09:49:02.381Z,34.4650
2023-04-26T09:50:02.447Z,34.4290
2023-04-26T09:51:04.685Z,34.4180
2023-04-26T09:52:06.925Z,34.4390
2023-04-26T09:53:09.159Z,34.4730
2023-04-26T09:54:11.338Z,34.5110
2023-04-26T09:55:25.330Z,34.5190
2023-04-26T09:56:16.059Z,34.4730
2023-04-26T09:57:17.994Z,34.4340
2023-04-26T09:58:20.236Z,34.4340
2023-04-26T09:59:22.425Z,34.4300
2023-04-26T10:00:24.659Z,34.4090
2023-04-26T10:01:27.085Z,34.4240
2023-04-26T10:02:27.155Z,34.4850
2023-04-26T10:03:29.482Z,34.4850
2023-04-26T10:04:31.457Z,34.4780
2023-04-26T10:05:34.154Z,34.4890
2023-04-26T10:06:35.850Z,34.4400
2023-04-26T10:07:38.078Z,34.4400
2023-04-26T10:08:40.354Z,34.5310
2023-04-26T10:09:42.501Z,34.5670
2023-04-26T10:10:44.794Z,34.5410
2023-04-26T10:11:47.072Z,34.5150
2023-04-26T10:12:49.333Z,34.5360
2023-04-26T10:13:49.499Z,34.6060
2023-04-26T10:14:51.765Z,34.6480
2023-04-26T10:15:54.019Z,34.6810
2023-04-26T10:16:56.364Z,34.7230
2023-04-26T10:17:58.647Z,34.6700
2023-04-26T10:19:00.941Z,34.6380
2023-04-26T10:20:03.164Z,34.5840
2023-04-26T10:21:05.407Z,34.5620
2023-04-26T10:22:05.522Z,34.6000
2023-04-26T10:23:07.797Z,34.5900
2023-04-26T10:24:10.070Z,34.6220
2023-04-26T10:25:12.261Z,34.6280
2023-04-26T10:26:14.513Z,34.7050
2023-04-26T10:27:16.787Z,34.7230
2023-04-26T10:28:18.924Z,34.7700
2023-04-26T10:29:21.209Z,34.7580
2023-04-26T10:30:23.407Z,34.7070
2023-04-26T10:31:25.702Z,34.6900
2023-04-26T10:33:17.449Z,34.7120
2023-04-26T10:34:19.565Z,34.5630
2023-04-26T10:35:21.930Z,34.5440
2023-04-26T10:36:24.029Z,34.6170
2023-04-26T10:37:26.276Z,34.5190
2023-04-26T10:38:28.569Z,34.5100
2023-04-26T10:39:30.819Z,34.4710
2023-04-26T10:40:30.981Z,34.4650
2023-04-26T10:41:33.228Z,34.4330
2023-04-26T10:42:35.497Z,34.4170
2023-04-26T10:43:37.721Z,34.3640
2023-04-26T10:44:40.052Z,34.3370
2023-04-26T10:45:42.234Z,34.3340
2023-04-26T10:46:44.411Z,34.3530
2023-04-26T10:47:46.661Z,34.3610
2023-04-26T10:48:48.838Z,34.3880
2023-04-26T10:49:51.022Z,34.2930
2023-04-26T10:50:53.222Z,34.2900
2023-04-26T10:51:53.265Z,34.3070
2023-04-26T10:52:55.457Z,34.3640
2023-04-26T10:53:57.591Z,34.3310
2023-04-26T10:54:59.711Z,34.3610
2023-04-26T10:56:01.901Z,34.4080
2023-04-26T10:57:04.103Z,34.3140
2023-04-26T10:58:06.349Z,34.3140
2023-04-26T10:59:28.508Z,34.3040
2023-04-26T11:00:10.853Z,34.3160
2023-04-26T11:01:13.334Z,34.2830
2023-04-26T11:02:15.406Z,34.2990
2023-04-26T11:03:17.783Z,34.2630
2023-04-26T11:04:17.892Z,34.2860
2023-04-26T11:05:19.988Z,34.2690
2023-04-26T11:06:22.247Z,34.2840
2023-04-26T11:07:24.472Z,34.2690
2023-04-26T11:08:26.713Z,34.2750
2023-04-26T11:09:28.942Z,34.2690
2023-04-26T11:10:31.145Z,34.2470
2023-04-26T11:11:33.373Z,34.2060
2023-04-26T11:12:35.499Z,34.2410
2023-04-26T11:13:37.730Z,34.1920
2023-04-26T11:14:39.856Z,34.2120
2023-04-26T11:15:42.092Z,34.2010
2023-04-26T11:16:44.417Z,34.1630
2023-04-26T11:17:46.484Z,34.1130
2023-04-26T11:18:46.571Z,34.1500
2023-04-26T11:19:48.848Z,34.1730
2023-04-26T11:20:51.116Z,34.1120
2023-04-26T11:21:54.580Z,34.0390
2023-04-26T11:22:55.667Z,34.0110
2023-04-26T11:23:57.917Z,33.9400
2023-04-26T11:25:00.212Z,33.9660
2023-04-26T11:26:02.450Z,33.9280
2023-04-26T11:27:04.731Z,33.9890
2023-04-26T11:28:04.827Z,33.9670
2023-04-26T11:29:07.132Z,34.0400
2023-04-26T11:30:09.339Z,34.0190
2023-04-26T11:31:11.651Z,33.9770
2023-04-26T11:32:13.887Z,34.0050
2023-04-26T11:33:16.083Z,33.9710
2023-04-26T11:34:18.349Z,33.9610
2023-04-26T11:35:20.612Z,33.9670
2023-04-26T11:36:22.864Z,33.9560
2023-04-26T11:37:22.976Z,33.9460
2023-04-26T11:38:25.197Z,33.9120
2023-04-26T11:39:27.395Z,33.9060
2023-04-26T11:40:29.535Z,33.9790
2023-04-26T11:41:31.686Z,33.8600
2023-04-26T11:42:33.859Z,33.9060
2023-04-26T11:43:35.972Z,33.9060
2023-04-26T11:44:38.160Z,33.8350
2023-04-26T11:45:40.128Z,33.9220
2023-04-26T11:46:42.286Z,34.0180
2023-04-26T11:47:44.436Z,33.9780
2023-04-26T11:48:46.572Z,33.9780
2023-04-26T11:49:48.726Z,33.9550
2023-04-26T11:50:50.936Z,33.9770
2023-04-26T11:51:53.163Z,33.9670
2023-04-26T11:52:55.376Z,33.8700
2023-04-26T11:53:55.437Z,33.8640
2023-04-26T11:54:57.633Z,33.9220
2023-04-26T11:55:59.870Z,33.9120
2023-04-26T11:57:02.144Z,33.8820
2023-04-26T11:58:04.413Z,33.8770
2023-04-26T11:59:06.654Z,33.8170
2023-04-26T12:00:08.888Z,33.7580
2023-04-26T12:01:11.132Z,33.7180
2023-04-26T12:02:13.419Z,33.8190
2023-04-26T12:03:15.881Z,33.9390
2023-04-26T12:04:15.825Z,33.9610
2023-04-26T12:05:17.989Z,33.9330
2023-04-26T12:06:20.150Z,33.8710
2023-04-26T12:07:22.371Z,33.8900
2023-04-26T12:08:24.591Z,33.8540
2023-04-26T12:09:26.773Z,33.8320
2023-04-26T12:10:28.987Z,33.8050
2023-04-26T12:11:31.206Z,33.8070
2023-04-26T12:12:33.424Z,33.8160
2023-04-26T12:13:35.652Z,33.7490
2023-04-26T12:14:37.896Z,33.8080
2023-04-26T12:15:39.123Z,33.7790
2023-04-26T12:16:40.161Z,33.7700
2023-04-26T12:17:42.357Z,33.7500
2023-04-26T12:18:44.628Z,33.7800
2023-04-26T12:19:46.828Z,33.7450
2023-04-26T12:20:49.107Z,33.7840
2023-04-26T12:21:51.334Z,33.7910
2023-04-26T12:22:53.609Z,33.7050
2023-04-26T12:23:56.046Z,33.7590
2023-04-26T12:24:56.027Z,33.7330
2023-04-26T12:25:58.303Z,33.7500
2023-04-26T12:27:02.511Z,33.7480
2023-04-26T12:28:02.782Z,33.7530
2023-04-26T12:29:05.111Z,33.7100
2023-04-26T12:30:07.223Z,33.7280
2023-04-26T12:31:09.503Z,33.7070
2023-04-26T12:32:11.588Z,33.7280
2023-04-26T12:33:17.589Z,33.5710
2023-04-26T12:34:16.020Z,33.3650
2023-04-26T12:35:18.238Z,33.2510
2023-04-26T12:36:20.494Z,33.4790
2023-04-26T12:37:20.593Z,33.6100